createdAt,value
2017-11-06T00:01:10.705Z,9.50
2017-11-06T00:03:38.158Z,9.70
2017-11-06T00:06:05.609Z,9.60
2017-11-06T00:08:33.093Z,9.60
2017-11-06T00:11:00.549Z,9.80
2017-11-06T00:13:28.014Z,9.70
2017-11-06T00:15:55.469Z,9.70
2017-11-06T00:18:22.926Z,9.40
2017-11-06T00:20:50.367Z,9.50
2017-11-06T00:23:17.848Z,9.70
2017-11-06T00:25:45.321Z,9.70
2017-11-06T00:28:12.765Z,9.70
2017-11-06T00:30:40.821Z,9.80
2017-11-06T00:33:08.277Z,9.80
2017-11-06T00:35:35.758Z,9.80
2017-11-06T00:38:03.185Z,9.60
2017-11-06T00:40:30.654Z,9.40
2017-11-06T00:42:58.107Z,9.70
2017-11-06T00:45:25.598Z,9.30
2017-11-06T00:47:53.046Z,9.40
2017-11-06T00:50:20.493Z,9.60
2017-11-06T00:52:47.956Z,9.60
2017-11-06T00:55:15.406Z,9.70
2017-11-06T00:57:42.865Z,9.60
2017-11-06T01:00:10.321Z,9.60
2017-11-06T01:02:37.784Z,9.60
2017-11-06T01:05:05.238Z,9.60
2017-11-06T01:07:32.678Z,9.30
2017-11-06T01:10:00.134Z,9.10
2017-11-06T01:12:27.588Z,9.40
2017-11-06T01:14:55.005Z,9.50
2017-11-06T01:17:23.233Z,9.40
2017-11-06T01:19:50.698Z,9.40
2017-11-06T01:22:18.158Z,9.30
2017-11-06T01:24:45.616Z,9.30
2017-11-06T01:27:13.110Z,9.50
2017-11-06T01:29:41.294Z,9.20
2017-11-06T01:32:08.731Z,9.20
2017-11-06T01:34:36.929Z,9.40
2017-11-06T01:37:05.160Z,9.40
2017-11-06T01:39:32.632Z,9.40
2017-11-06T01:42:00.090Z,9.50
2017-11-06T01:44:27.551Z,9.50
2017-11-06T01:46:55.270Z,9.40
2017-11-06T01:49:22.702Z,9.40
2017-11-06T01:51:50.932Z,9.10
2017-11-06T01:54:18.386Z,9.10
2017-11-06T01:56:45.804Z,9.30
2017-11-06T01:59:13.268Z,9.50
2017-11-06T02:01:40.721Z,9.20
2017-11-06T02:04:08.153Z,9.30
2017-11-06T02:06:36.354Z,9.20
2017-11-06T02:09:03.785Z,9.20
2017-11-06T02:11:31.992Z,9.30
2017-11-06T02:13:59.449Z,9.30
2017-11-06T02:16:26.908Z,9.40
2017-11-06T02:18:54.373Z,9.20
2017-11-06T02:21:21.832Z,9.00
2017-11-06T02:23:49.286Z,8.90
2017-11-06T02:26:16.750Z,8.60
2017-11-06T02:28:44.211Z,8.20
2017-11-06T02:31:11.668Z,8.60
2017-11-06T02:33:39.085Z,8.90
2017-11-06T02:36:07.302Z,9.40
2017-11-06T02:38:34.746Z,9.40
2017-11-06T02:41:02.200Z,9.40
2017-11-06T02:43:29.661Z,9.00
2017-11-06T02:45:57.110Z,9.20
2017-11-06T02:48:25.489Z,9.10
2017-11-06T02:50:53.752Z,9.40
2017-11-06T02:53:21.937Z,9.70
2017-11-06T02:55:49.377Z,9.70
2017-11-06T02:58:17.606Z,9.40
2017-11-06T03:00:45.264Z,9.40
2017-11-06T03:03:12.788Z,9.30
2017-11-06T03:05:40.254Z,9.50
2017-11-06T03:08:07.703Z,9.60
2017-11-06T03:10:35.163Z,9.80
2017-11-06T03:13:02.626Z,9.80
2017-11-06T03:15:30.083Z,9.80
2017-11-06T03:17:57.536Z,9.70
2017-11-06T03:20:26.427Z,9.40
2017-11-06T03:22:53.915Z,9.40
2017-11-06T03:25:21.357Z,9.50
2017-11-06T03:27:48.838Z,9.50
2017-11-06T03:30:16.318Z,9.80
2017-11-06T03:32:43.758Z,9.80
2017-11-06T03:35:11.233Z,9.70
2017-11-06T03:37:38.693Z,10.00
2017-11-06T03:40:06.154Z,9.80
2017-11-06T03:42:33.594Z,10.00
2017-11-06T03:45:01.054Z,10.10
2017-11-06T03:47:28.509Z,9.90
2017-11-06T03:49:55.961Z,9.80
2017-11-06T03:52:23.428Z,10.00
2017-11-06T03:54:50.886Z,10.00
2017-11-06T03:57:18.425Z,10.00
2017-11-06T03:59:45.837Z,10.10
2017-11-06T04:02:13.292Z,10.10
2017-11-06T04:04:41.513Z,10.00
2017-11-06T04:07:08.976Z,10.00
2017-11-06T04:09:36.457Z,10.00
2017-11-06T04:12:03.901Z,10.00
2017-11-06T04:14:31.401Z,10.10
2017-11-06T04:17:00.497Z,10.30
2017-11-06T04:19:28.762Z,10.30
2017-11-06T04:21:56.966Z,10.00
2017-11-06T04:24:24.406Z,10.00
2017-11-06T04:26:53.362Z,10.20
2017-11-06T04:29:20.854Z,10.10
2017-11-06T04:31:49.057Z,10.10
2017-11-06T04:34:22.112Z,10.00
2017-11-06T04:36:50.318Z,10.00
2017-11-06T04:39:17.748Z,10.00
2017-11-06T04:41:45.945Z,10.10
2017-11-06T04:44:13.389Z,10.00
2017-11-06T04:46:40.871Z,9.90
2017-11-06T04:49:09.099Z,10.10
2017-11-06T04:51:36.521Z,10.10
2017-11-06T04:54:03.955Z,9.80
2017-11-06T04:56:31.387Z,9.80
2017-11-06T04:58:59.697Z,10.00
2017-11-06T05:01:27.137Z,9.90
2017-11-06T05:03:55.415Z,9.90
2017-11-06T05:06:22.924Z,9.80
2017-11-06T05:08:50.362Z,9.70
2017-11-06T05:11:17.797Z,9.80
2017-11-06T05:13:45.236Z,9.60
2017-11-06T05:16:12.682Z,9.60
2017-11-06T05:18:40.960Z,9.60
2017-11-06T05:21:09.157Z,9.60
2017-11-06T05:23:36.633Z,9.60
2017-11-06T05:26:04.089Z,9.60
2017-11-06T05:28:31.545Z,9.50
2017-11-06T05:30:59.007Z,9.40
2017-11-06T05:33:26.483Z,9.50
2017-11-06T05:35:53.943Z,9.60
2017-11-06T05:38:21.417Z,9.60
2017-11-06T05:40:48.857Z,9.30
2017-11-06T05:43:16.309Z,9.40
2017-11-06T05:45:43.781Z,9.60
2017-11-06T05:48:11.242Z,9.70
2017-11-06T05:50:38.715Z,9.80
2017-11-06T05:53:06.157Z,9.80
2017-11-06T05:55:33.613Z,9.80
2017-11-06T05:58:01.049Z,9.80
2017-11-06T06:00:28.501Z,10.00
2017-11-06T06:02:55.974Z,10.10
2017-11-06T06:05:23.446Z,10.20
2017-11-06T06:07:50.869Z,10.00
2017-11-06T06:10:18.325Z,10.20
2017-11-06T06:12:45.786Z,10.20
2017-11-06T06:15:13.263Z,9.90
2017-11-06T06:17:40.713Z,9.90
2017-11-06T06:20:08.161Z,10.00
2017-11-06T06:22:35.621Z,9.80
2017-11-06T06:25:03.090Z,9.80
2017-11-06T06:27:30.554Z,9.80
2017-11-06T06:29:58.016Z,9.90
2017-11-06T06:32:26.097Z,10.00
2017-11-06T06:34:53.549Z,10.00
2017-11-06T06:37:21.014Z,10.20
2017-11-06T06:39:48.478Z,10.20
2017-11-06T06:42:15.935Z,10.10
2017-11-06T06:44:43.516Z,10.20
2017-11-06T06:47:10.973Z,10.30
2017-11-06T06:49:38.386Z,10.00
2017-11-06T06:52:05.869Z,10.20
2017-11-06T06:54:33.329Z,10.30
2017-11-06T06:57:00.788Z,10.10
2017-11-06T06:59:28.370Z,9.70
2017-11-06T07:01:56.554Z,10.20
2017-11-06T07:04:24.798Z,10.30
2017-11-06T07:06:52.349Z,10.30
2017-11-06T07:09:19.806Z,10.30
2017-11-06T07:11:47.356Z,10.40
2017-11-06T07:14:14.846Z,10.60
2017-11-06T07:16:43.114Z,10.80
2017-11-06T07:19:10.586Z,10.80
2017-11-06T07:21:38.785Z,11.10
2017-11-06T07:24:06.220Z,11.10
2017-11-06T07:26:34.419Z,11.20
2017-11-06T07:29:01.937Z,11.20
2017-11-06T07:31:29.407Z,11.30
2017-11-06T07:33:57.612Z,11.20
2017-11-06T07:36:25.248Z,11.20
2017-11-06T07:38:53.458Z,11.10
2017-11-06T07:41:20.906Z,11.10
2017-11-06T07:43:48.371Z,11.40
2017-11-06T07:46:15.810Z,11.40
2017-11-06T07:48:43.290Z,11.50
2017-11-06T07:51:10.714Z,11.60
2017-11-06T07:53:39.869Z,11.70
2017-11-06T07:56:07.306Z,11.60
2017-11-06T07:58:34.815Z,11.40
2017-11-06T08:01:02.323Z,11.50
2017-11-06T08:03:29.793Z,11.50
2017-11-06T08:05:57.224Z,11.20
2017-11-06T08:08:24.701Z,11.30
2017-11-06T08:10:52.158Z,11.40
2017-11-06T08:13:19.592Z,11.70
2017-11-06T08:15:47.055Z,12.00
2017-11-06T08:18:14.522Z,12.10
2017-11-06T08:20:42.027Z,12.20
2017-11-06T08:23:09.491Z,12.00
2017-11-06T08:25:36.939Z,11.80
2017-11-06T08:28:04.503Z,11.90
2017-11-06T08:30:31.986Z,11.80
2017-11-06T08:33:00.205Z,11.00
2017-11-06T08:35:27.684Z,11.00
2017-11-06T08:37:55.236Z,10.70
2017-11-06T08:40:22.694Z,11.40
2017-11-06T08:42:50.151Z,11.80
2017-11-06T08:45:17.632Z,12.20
2017-11-06T08:47:45.863Z,12.50
2017-11-06T08:50:13.317Z,12.40
2017-11-06T08:52:40.797Z,12.20
2017-11-06T08:55:08.250Z,12.80
2017-11-06T08:57:35.705Z,13.10
2017-11-06T09:00:03.606Z,13.00
2017-11-06T09:02:31.053Z,13.30
2017-11-06T09:04:58.508Z,13.00
2017-11-06T09:07:26.505Z,12.70
2017-11-06T09:09:53.942Z,12.80
2017-11-06T09:12:21.418Z,12.80
2017-11-06T09:14:48.883Z,12.90
2017-11-06T09:17:16.293Z,13.00
2017-11-06T09:19:43.744Z,13.30
2017-11-06T09:22:11.202Z,13.20
2017-11-06T09:24:38.663Z,13.00
2017-11-06T09:27:06.136Z,13.20
2017-11-06T09:29:33.695Z,12.60
2017-11-06T09:32:01.910Z,12.90
2017-11-06T09:34:30.109Z,12.80
2017-11-06T09:36:57.546Z,12.80
2017-11-06T09:39:26.722Z,13.40
2017-11-06T09:41:54.915Z,14.10
2017-11-06T09:44:23.162Z,14.90
2017-11-06T09:46:50.619Z,14.80
2017-11-06T09:49:18.077Z,14.70
2017-11-06T09:51:45.627Z,14.70
2017-11-06T09:54:13.061Z,14.60
2017-11-06T09:56:40.497Z,14.60
2017-11-06T09:59:07.968Z,14.50
2017-11-06T10:01:35.411Z,14.40
2017-11-06T10:04:03.656Z,14.90
2017-11-06T10:06:31.109Z,14.90
2017-11-06T10:08:58.669Z,14.90
2017-11-06T10:11:26.681Z,15.20
2017-11-06T10:13:54.117Z,15.20
2017-11-06T10:16:21.577Z,15.30
2017-11-06T10:18:49.038Z,15.60
2017-11-06T10:21:16.625Z,16.10
2017-11-06T10:23:44.065Z,15.50
2017-11-06T10:26:11.525Z,15.60
2017-11-06T10:28:38.986Z,15.90
2017-11-06T10:31:06.437Z,16.10
2017-11-06T10:33:33.893Z,16.20
2017-11-06T10:36:01.375Z,16.60
2017-11-06T10:38:28.817Z,17.00
2017-11-06T10:40:56.260Z,18.10
2017-11-06T10:43:23.731Z,19.40
2017-11-06T10:45:51.199Z,20.10
2017-11-06T10:48:18.658Z,20.60
2017-11-06T10:50:46.343Z,21.30
2017-11-06T10:53:13.801Z,22.00
2017-11-06T10:55:41.229Z,23.30
2017-11-06T10:58:08.704Z,24.10
2017-11-06T11:00:36.161Z,25.20
2017-11-06T11:03:03.614Z,25.20
2017-11-06T11:05:31.077Z,24.80
2017-11-06T11:07:58.557Z,24.40
2017-11-06T11:10:26.840Z,23.70
2017-11-06T11:12:54.297Z,22.80
2017-11-06T11:15:21.754Z,21.40
2017-11-06T11:17:49.191Z,20.90
2017-11-06T11:20:16.658Z,20.20
2017-11-06T11:22:44.129Z,19.80
2017-11-06T11:25:11.562Z,19.10
2017-11-06T11:27:39.030Z,18.10
2017-11-06T11:30:06.486Z,17.80
2017-11-06T11:32:33.929Z,17.70
2017-11-06T11:35:01.426Z,17.40
2017-11-06T11:37:28.865Z,17.60
2017-11-06T11:39:56.394Z,17.40
2017-11-06T11:42:23.901Z,17.70
2017-11-06T11:44:51.422Z,17.70
2017-11-06T11:47:18.838Z,17.50
2017-11-06T11:49:47.071Z,17.20
2017-11-06T11:52:14.509Z,17.10
2017-11-06T11:54:41.986Z,16.90
2017-11-06T11:57:09.445Z,16.80
2017-11-06T11:59:36.921Z,16.80
2017-11-06T12:02:04.358Z,16.80
2017-11-06T12:04:31.788Z,16.90
2017-11-06T12:06:59.216Z,16.90
2017-11-06T12:09:26.857Z,16.90
2017-11-06T12:11:54.317Z,17.00
2017-11-06T12:14:22.849Z,16.90
2017-11-06T12:16:50.712Z,16.70
2017-11-06T12:19:18.154Z,16.40
2017-11-06T12:21:45.607Z,16.40
2017-11-06T12:24:13.785Z,16.60
2017-11-06T12:26:41.246Z,16.60
2017-11-06T12:29:09.422Z,16.90
2017-11-06T12:31:37.658Z,16.90
2017-11-06T12:34:05.144Z,16.90
2017-11-06T12:36:33.329Z,16.40
2017-11-06T12:39:00.793Z,16.40
2017-11-06T12:41:28.985Z,17.10
2017-11-06T12:43:56.428Z,17.00
2017-11-06T12:46:23.879Z,16.80
2017-11-06T12:48:52.062Z,17.30
2017-11-06T12:51:20.334Z,17.10
2017-11-06T12:53:47.760Z,17.10
2017-11-06T12:56:15.206Z,17.30
2017-11-06T12:58:42.653Z,17.50
2017-11-06T13:01:10.085Z,17.50
2017-11-06T13:03:37.522Z,17.60
2017-11-06T13:06:05.124Z,17.90
2017-11-06T13:08:33.385Z,18.10
2017-11-06T13:11:00.806Z,18.10
2017-11-06T13:13:28.294Z,18.10
2017-11-06T13:15:55.768Z,17.70
2017-11-06T13:18:23.222Z,17.80
2017-11-06T13:20:50.674Z,17.90
2017-11-06T13:23:18.409Z,18.00
2017-11-06T13:25:46.726Z,17.90
2017-11-06T13:28:14.183Z,17.80
2017-11-06T13:30:41.640Z,17.50
2017-11-06T13:33:09.081Z,17.40
2017-11-06T13:35:36.647Z,17.40
2017-11-06T13:38:04.101Z,17.10
2017-11-06T13:40:31.582Z,17.10
2017-11-06T13:42:59.042Z,17.20
2017-11-06T13:45:27.909Z,17.40
2017-11-06T13:47:55.461Z,17.40
2017-11-06T13:50:22.924Z,17.20
2017-11-06T13:52:50.361Z,16.80
2017-11-06T13:55:17.799Z,16.80
2017-11-06T13:57:46.025Z,17.00
2017-11-06T14:00:13.506Z,16.90
2017-11-06T14:02:41.073Z,16.90
2017-11-06T14:05:08.551Z,16.80
2017-11-06T14:07:36.000Z,16.80
2017-11-06T14:10:03.452Z,17.20
2017-11-06T14:12:30.904Z,17.50
2017-11-06T14:14:58.325Z,17.90
2017-11-06T14:17:25.797Z,18.00
2017-11-06T14:19:53.245Z,18.30
2017-11-06T14:22:20.713Z,18.30
2017-11-06T14:24:48.229Z,18.20
2017-11-06T14:27:16.591Z,18.50
2017-11-06T14:29:44.019Z,18.50
2017-11-06T14:32:11.490Z,18.70
2017-11-06T14:34:38.942Z,18.60
2017-11-06T14:37:07.874Z,18.10
2017-11-06T14:39:36.123Z,17.80
2017-11-06T14:42:03.981Z,17.80
2017-11-06T14:44:31.432Z,17.40
2017-11-06T14:46:58.903Z,17.10
2017-11-06T14:49:27.273Z,16.80
2017-11-06T14:51:54.728Z,16.50
2017-11-06T14:54:22.182Z,16.30
2017-11-06T14:56:49.854Z,16.20
2017-11-06T14:59:17.325Z,16.00
2017-11-06T15:01:44.783Z,15.80
2017-11-06T15:04:13.262Z,15.50
2017-11-06T15:06:40.713Z,15.50
2017-11-06T15:09:08.917Z,15.20
2017-11-06T15:11:38.066Z,15.10
2017-11-06T15:14:05.529Z,15.10
2017-11-06T15:16:33.049Z,15.00
2017-11-06T15:19:00.499Z,15.00
2017-11-06T15:21:28.017Z,14.90
2017-11-06T15:23:55.519Z,14.80
2017-11-06T15:26:22.982Z,14.70
2017-11-06T15:28:50.417Z,14.70
2017-11-06T15:31:17.905Z,14.60
2017-11-06T15:33:45.352Z,14.50
2017-11-06T15:36:12.796Z,14.40
2017-11-06T15:38:40.989Z,14.10
2017-11-06T15:41:08.914Z,14.10
2017-11-06T15:43:37.112Z,13.90
2017-11-06T15:46:04.565Z,13.80
2017-11-06T15:48:32.770Z,13.50
2017-11-06T15:51:00.213Z,13.50
2017-11-06T15:53:27.665Z,13.30
2017-11-06T15:55:55.526Z,13.30
2017-11-06T15:58:22.974Z,13.20
2017-11-06T16:00:51.190Z,13.10
2017-11-06T16:03:18.637Z,13.10
2017-11-06T16:05:46.089Z,13.00
2017-11-06T16:08:13.555Z,12.90
2017-11-06T16:10:41.016Z,12.80
2017-11-06T16:13:08.497Z,12.70
2017-11-06T16:15:35.926Z,12.70
2017-11-06T16:18:03.392Z,12.60
2017-11-06T16:20:30.840Z,12.50
2017-11-06T16:22:59.334Z,12.40
2017-11-06T16:25:28.235Z,12.40
2017-11-06T16:27:55.680Z,12.40
2017-11-06T16:30:23.137Z,12.40
2017-11-06T16:32:50.599Z,12.40
2017-11-06T16:35:18.068Z,12.30
2017-11-06T16:37:45.523Z,12.30
2017-11-06T16:40:12.977Z,12.20
2017-11-06T16:42:40.439Z,12.20
2017-11-06T16:45:07.892Z,12.20
2017-11-06T16:47:36.065Z,12.20
2017-11-06T16:50:03.541Z,12.10
2017-11-06T16:52:31.017Z,12.00
2017-11-06T16:54:58.462Z,12.00
2017-11-06T16:57:26.021Z,11.90
2017-11-06T16:59:53.489Z,11.80
2017-11-06T17:02:20.934Z,11.80
2017-11-06T17:04:48.389Z,11.70
2017-11-06T17:07:16.661Z,11.40
2017-11-06T17:09:44.139Z,11.40
2017-11-06T17:12:11.588Z,11.40
2017-11-06T17:14:39.042Z,11.30
2017-11-06T17:17:06.510Z,11.30
2017-11-06T17:19:33.965Z,11.40
2017-11-06T17:22:01.531Z,11.40
2017-11-06T17:24:28.988Z,11.30
2017-11-06T17:26:56.442Z,11.30
2017-11-06T17:29:23.895Z,11.20
2017-11-06T17:31:51.340Z,11.30
2017-11-06T17:34:18.820Z,11.20
2017-11-06T17:36:46.278Z,11.10
2017-11-06T17:39:13.768Z,11.10
2017-11-06T17:41:41.231Z,11.10
2017-11-06T17:44:09.447Z,11.20
2017-11-06T17:46:36.877Z,11.10
2017-11-06T17:49:04.401Z,11.10
2017-11-06T17:51:31.844Z,11.10
2017-11-06T17:53:59.302Z,11.10
2017-11-06T17:56:27.793Z,11.10
2017-11-06T17:58:56.107Z,11.10
2017-11-06T18:01:23.569Z,11.00
2017-11-06T18:03:51.030Z,11.00
2017-11-06T18:06:18.474Z,10.90
2017-11-06T18:08:45.934Z,10.90
2017-11-06T18:11:13.401Z,10.80
2017-11-06T18:13:40.849Z,10.80
2017-11-06T18:16:08.299Z,10.70
2017-11-06T18:18:35.757Z,10.70
2017-11-06T18:21:03.201Z,10.90
2017-11-06T18:23:30.701Z,11.00
2017-11-06T18:25:58.108Z,11.00
2017-11-06T18:28:26.309Z,11.00
2017-11-06T18:30:53.741Z,11.00
2017-11-06T18:33:21.942Z,11.00
2017-11-06T18:35:49.386Z,11.00
2017-11-06T18:38:17.588Z,11.10
2017-11-06T18:40:45.018Z,11.00
2017-11-06T18:43:12.471Z,11.10
2017-11-06T18:45:40.656Z,11.00
2017-11-06T18:48:08.113Z,11.00
2017-11-06T18:50:35.559Z,10.90
2017-11-06T18:53:03.766Z,10.80
2017-11-06T18:55:31.197Z,10.70
2017-11-06T18:57:58.682Z,10.90
2017-11-06T19:00:26.119Z,10.90
2017-11-06T19:02:53.598Z,10.90
2017-11-06T19:05:21.033Z,10.90
2017-11-06T19:07:48.494Z,11.00
2017-11-06T19:10:15.943Z,11.10
2017-11-06T19:12:44.178Z,11.20
2017-11-06T19:15:11.629Z,11.20
2017-11-06T19:17:39.076Z,11.20
2017-11-06T19:20:06.523Z,11.10
2017-11-06T19:22:33.989Z,11.20
2017-11-06T19:25:01.438Z,11.20
2017-11-06T19:27:28.922Z,11.10
2017-11-06T19:29:56.356Z,11.20
2017-11-06T19:32:23.811Z,11.10
2017-11-06T19:34:51.570Z,11.20
2017-11-06T19:37:19.037Z,11.10
2017-11-06T19:39:47.407Z,11.10
2017-11-06T19:42:14.851Z,11.20
2017-11-06T19:44:42.277Z,11.20
2017-11-06T19:47:10.902Z,11.20
2017-11-06T19:49:38.349Z,11.10
2017-11-06T19:52:05.821Z,11.30
2017-11-06T19:54:33.316Z,11.30
2017-11-06T19:57:00.743Z,11.30
2017-11-06T19:59:28.183Z,11.40
2017-11-06T20:01:55.674Z,11.40
2017-11-06T20:04:23.140Z,11.60
2017-11-06T20:06:50.585Z,11.60
2017-11-06T20:09:18.049Z,11.50
2017-11-06T20:11:45.506Z,11.60
2017-11-06T20:14:12.963Z,11.60
2017-11-06T20:16:40.413Z,11.60
2017-11-06T20:19:07.866Z,11.60
2017-11-06T20:21:35.324Z,11.60
2017-11-06T20:24:02.783Z,11.60
2017-11-06T20:26:30.257Z,11.60
2017-11-06T20:28:57.723Z,11.70
2017-11-06T20:31:25.230Z,11.70
2017-11-06T20:33:52.677Z,11.70
2017-11-06T20:36:20.894Z,11.80
2017-11-06T20:38:48.350Z,11.80
2017-11-06T20:41:15.829Z,11.80
2017-11-06T20:43:43.262Z,11.80
2017-11-06T20:46:10.745Z,11.90
2017-11-06T20:48:38.185Z,11.90
2017-11-06T20:51:05.634Z,11.90
2017-11-06T20:53:33.094Z,11.90
2017-11-06T20:56:00.561Z,12.00
2017-11-06T20:58:28.016Z,12.00
2017-11-06T21:00:55.502Z,12.00
2017-11-06T21:03:22.937Z,11.90
2017-11-06T21:05:50.400Z,11.90
2017-11-06T21:08:17.859Z,11.90
2017-11-06T21:10:45.340Z,12.00
2017-11-06T21:13:12.798Z,12.10
2017-11-06T21:15:40.261Z,12.10
2017-11-06T21:18:07.695Z,12.20
2017-11-06T21:20:35.154Z,12.10
2017-11-06T21:23:02.613Z,12.10
2017-11-06T21:25:30.079Z,12.10
2017-11-06T21:27:57.533Z,12.20
2017-11-06T21:30:30.518Z,12.30
2017-11-06T21:32:57.951Z,12.30
2017-11-06T21:35:25.414Z,12.20
2017-11-06T21:37:52.866Z,12.20
2017-11-06T21:40:20.285Z,12.20
2017-11-06T21:42:48.473Z,12.10
2017-11-06T21:45:15.921Z,12.10
2017-11-06T21:47:43.376Z,12.10
2017-11-06T21:50:11.561Z,12.20
2017-11-06T21:52:39.065Z,12.10
2017-11-06T21:55:06.526Z,12.00
2017-11-06T21:57:33.997Z,12.10
2017-11-06T22:00:01.452Z,12.10
2017-11-06T22:02:28.899Z,12.20
2017-11-06T22:04:56.360Z,12.20
2017-11-06T22:07:23.817Z,12.10
2017-11-06T22:09:51.277Z,12.10
2017-11-06T22:12:18.732Z,12.20
2017-11-06T22:14:46.211Z,12.20
2017-11-06T22:17:14.414Z,12.10
2017-11-06T22:19:41.874Z,12.10
2017-11-06T22:22:10.055Z,11.80
2017-11-06T22:24:37.522Z,11.90
2017-11-06T22:27:04.955Z,11.80
2017-11-06T22:29:32.423Z,11.70
2017-11-06T22:31:59.885Z,11.60
2017-11-06T22:34:28.259Z,11.40
2017-11-06T22:36:55.746Z,11.40
2017-11-06T22:39:23.185Z,11.20
2017-11-06T22:41:50.627Z,11.20
2017-11-06T22:44:18.086Z,11.10
2017-11-06T22:46:45.543Z,11.10
2017-11-06T22:49:13.225Z,11.00
2017-11-06T22:51:40.681Z,10.90
2017-11-06T22:54:08.140Z,10.80
2017-11-06T22:56:35.590Z,10.70
2017-11-06T22:59:03.066Z,10.60
2017-11-06T23:01:30.514Z,10.50
2017-11-06T23:03:57.955Z,10.50
2017-11-06T23:06:25.488Z,10.40
2017-11-06T23:08:52.934Z,10.30
2017-11-06T23:11:20.412Z,10.20
2017-11-06T23:13:48.662Z,10.10
2017-11-06T23:16:16.078Z,10.10
2017-11-06T23:18:43.545Z,10.10
2017-11-06T23:21:10.994Z,10.10
2017-11-06T23:23:38.429Z,10.00
2017-11-06T23:26:05.891Z,9.90
2017-11-06T23:28:33.372Z,9.90
2017-11-06T23:31:00.828Z,9.80
2017-11-06T23:33:29.214Z,9.60
2017-11-06T23:35:56.679Z,9.60
2017-11-06T23:38:24.129Z,9.60
2017-11-06T23:40:51.645Z,9.50
2017-11-06T23:43:19.835Z,9.50
2017-11-06T23:45:47.470Z,9.50
2017-11-06T23:48:14.886Z,9.40
2017-11-06T23:50:42.323Z,9.30
2017-11-06T23:53:09.783Z,9.30
2017-11-06T23:55:37.250Z,9.40
2017-11-06T23:58:04.705Z,9.30
